createdAt,value
2018-03-20T00:01:22.041Z,101889.43
2018-03-20T00:03:50.202Z,101886.38
2018-03-20T00:06:18.290Z,101878.98
2018-03-20T00:08:46.490Z,101893.94
2018-03-20T00:11:14.581Z,101891.72
2018-03-20T00:13:42.676Z,101891.30
2018-03-20T00:16:10.803Z,101895.77
2018-03-20T00:18:38.901Z,101892.72
2018-03-20T00:21:07.038Z,101887.45
2018-03-20T00:23:35.117Z,101889.27
2018-03-20T00:26:03.207Z,101887.42
2018-03-20T00:28:31.309Z,101884.40
2018-03-20T00:30:59.399Z,101887.50
2018-03-20T00:33:27.512Z,101889.72
2018-03-20T00:35:55.614Z,101880.05
2018-03-20T00:38:23.877Z,101875.23
2018-03-20T00:40:51.964Z,101876.57
2018-03-20T00:43:20.057Z,101871.77
2018-03-20T00:45:48.165Z,101869.56
2018-03-20T00:48:16.261Z,101869.16
2018-03-20T00:50:44.379Z,101868.28
2018-03-20T00:53:12.538Z,101870.84
2018-03-20T00:55:40.621Z,101870.42
2018-03-20T00:58:08.707Z,101865.16
2018-03-20T01:00:37.660Z,101873.11
2018-03-20T01:03:05.764Z,101865.64
2018-03-20T01:05:34.777Z,101871.38
2018-03-20T01:08:02.885Z,101870.09
2018-03-20T01:10:30.989Z,101879.81
2018-03-20T01:12:59.101Z,101886.88
2018-03-20T01:15:27.661Z,101879.41
2018-03-20T01:17:55.778Z,101867.09
2018-03-20T01:33:28.932Z,101870.63
2018-03-20T01:35:57.037Z,101867.52
2018-03-20T01:38:25.159Z,101867.98
2018-03-20T01:40:53.293Z,101865.78
2018-03-20T01:43:21.377Z,101866.64
2018-03-20T01:45:49.459Z,101856.11
2018-03-20T01:48:17.575Z,101861.83
2018-03-20T01:50:46.474Z,101854.81
2018-03-20T01:53:20.583Z,101856.16
2018-03-20T01:55:48.995Z,101858.37
2018-03-20T01:58:17.136Z,101855.74
2018-03-20T02:00:45.338Z,101864.97
2018-03-20T02:03:13.716Z,101849.98
2018-03-20T02:05:42.094Z,101841.64
2018-03-20T02:08:10.203Z,101850.47
2018-03-20T02:10:39.137Z,101852.69
2018-03-20T02:13:07.913Z,101848.70
2018-03-20T02:15:36.164Z,101849.60
2018-03-20T02:18:04.253Z,101846.95
2018-03-20T02:20:32.343Z,101847.38
2018-03-20T02:23:00.452Z,101848.70
2018-03-20T02:25:28.542Z,101846.50
2018-03-20T02:27:56.878Z,101849.61
2018-03-20T02:30:24.986Z,101846.54
2018-03-20T02:32:53.158Z,101846.54
2018-03-20T02:35:21.271Z,101848.73
2018-03-20T02:37:49.356Z,101839.03
2018-03-20T02:40:17.455Z,101838.59
2018-03-20T02:42:45.554Z,101841.67
2018-03-20T02:45:13.646Z,101841.22
2018-03-20T02:47:41.754Z,101837.70
2018-03-20T02:50:10.138Z,101828.02
2018-03-20T02:52:38.250Z,101831.99
2018-03-20T02:55:06.344Z,101836.84
2018-03-20T02:57:34.487Z,101830.65
2018-03-20T03:00:02.674Z,101829.31
2018-03-20T03:02:31.277Z,101827.98
2018-03-20T03:04:59.674Z,101824.91
2018-03-20T03:07:28.618Z,101830.17
2018-03-20T03:09:56.777Z,101821.80
2018-03-20T03:12:24.903Z,101819.13
2018-03-20T03:14:53.794Z,101818.27
2018-03-20T03:17:22.781Z,101827.94
2018-03-20T03:19:50.898Z,101827.47
2018-03-20T03:22:19.002Z,101826.58
2018-03-20T03:24:47.090Z,101824.38
2018-03-20T03:27:15.210Z,101819.50
2018-03-20T03:29:43.302Z,101813.77
2018-03-20T03:32:11.468Z,101812.42
2018-03-20T03:34:39.627Z,101817.72
2018-03-20T03:37:07.720Z,101817.23
2018-03-20T03:39:35.814Z,101801.33
2018-03-20T03:42:04.678Z,101805.30
2018-03-20T03:44:32.774Z,101802.64
2018-03-20T03:47:00.882Z,101796.91
2018-03-20T03:49:29.018Z,101798.20
2018-03-20T03:51:57.112Z,101797.30
2018-03-20T03:54:25.226Z,101790.22
2018-03-20T03:56:53.441Z,101803.84
2018-03-20T03:59:21.531Z,101805.20
2018-03-20T04:01:50.667Z,101797.62
2018-03-20T04:04:18.754Z,101794.08
2018-03-20T04:06:47.202Z,101799.33
2018-03-20T04:09:15.312Z,101794.00
2018-03-20T04:11:43.400Z,101793.08
2018-03-20T04:14:12.018Z,101792.13
2018-03-20T04:16:40.134Z,101795.17
2018-03-20T04:19:09.137Z,101790.26
2018-03-20T04:21:37.236Z,101791.55
2018-03-20T04:24:05.451Z,101793.73
2018-03-20T04:26:33.614Z,101792.80
2018-03-20T04:29:01.870Z,101788.80
2018-03-20T04:31:29.974Z,101780.83
2018-03-20T04:33:58.850Z,101795.87
2018-03-20T04:36:28.194Z,101790.10
2018-03-20T04:38:56.322Z,101802.48
2018-03-20T04:41:24.418Z,101787.42
2018-03-20T04:43:52.558Z,101807.34
2018-03-20T04:46:20.614Z,101797.23
2018-03-20T04:48:48.702Z,101803.92
2018-03-20T04:51:16.847Z,101804.78
2018-03-20T04:53:45.826Z,101811.44
2018-03-20T04:56:13.926Z,101809.22
2018-03-20T04:58:42.018Z,101822.50
2018-03-20T05:01:10.806Z,101831.32
2018-03-20T05:03:38.917Z,101837.11
2018-03-20T05:06:06.999Z,101834.48
2018-03-20T05:08:35.110Z,101837.63
2018-03-20T05:11:03.229Z,101829.28
2018-03-20T05:13:31.328Z,101833.26
2018-03-20T05:15:59.411Z,101854.91
2018-03-20T05:18:27.526Z,101829.34
2018-03-20T05:20:56.581Z,101836.87
2018-03-20T05:23:25.372Z,101836.91
2018-03-20T05:25:53.457Z,101841.38
2018-03-20T05:28:21.559Z,101844.48
2018-03-20T05:30:49.670Z,101844.05
2018-03-20T05:33:17.781Z,101841.85
2018-03-20T05:35:46.128Z,101842.31
2018-03-20T05:38:14.216Z,101865.26
2018-03-20T05:40:43.038Z,101857.31
2018-03-20T05:43:11.137Z,101868.77
2018-03-20T05:45:39.226Z,101864.78
2018-03-20T05:48:13.187Z,101864.34
2018-03-20T05:53:43.241Z,101878.89
2018-03-20T05:56:11.322Z,101882.45
2018-03-20T05:58:39.466Z,101890.83
2018-03-20T06:01:07.538Z,101888.19
2018-03-20T06:03:35.632Z,101902.75
2018-03-20T06:06:03.744Z,101900.54
2018-03-20T06:08:31.848Z,101911.59
2018-03-20T06:10:59.944Z,101908.95
2018-03-20T06:13:28.026Z,101912.03
2018-03-20T06:15:56.150Z,101912.48
2018-03-20T06:18:24.266Z,101926.16
2018-03-20T06:20:52.363Z,101919.97
2018-03-20T06:23:20.466Z,101929.70
2018-03-20T06:25:48.642Z,101945.61
2018-03-20T06:28:16.737Z,101934.55
2018-03-20T06:30:44.860Z,101933.20
2018-03-20T06:33:13.626Z,101941.58
2018-03-20T06:35:41.714Z,101957.03
2018-03-20T06:38:09.834Z,101964.55
2018-03-20T06:40:37.926Z,101957.50
2018-03-20T06:43:06.041Z,101971.20
2018-03-20T06:45:34.301Z,101969.41
2018-03-20T06:48:02.368Z,101980.88
2018-03-20T06:50:30.487Z,101980.44
2018-03-20T06:52:58.620Z,101981.77
2018-03-20T06:55:26.690Z,101994.99
2018-03-20T07:10:55.311Z,101991.09
2018-03-20T07:13:23.381Z,101992.52
2018-03-20T07:15:51.488Z,101987.01
2018-03-20T07:18:19.615Z,101993.92
2018-03-20T07:20:47.820Z,101991.44
2018-03-20T07:23:15.983Z,101992.89
2018-03-20T07:25:44.106Z,102003.27
2018-03-20T07:28:12.199Z,102007.78
2018-03-20T07:30:40.302Z,102024.47
2018-03-20T07:33:08.414Z,102031.80
2018-03-20T07:35:36.512Z,102019.09
2018-03-20T07:38:04.597Z,102024.36
2018-03-20T07:40:32.705Z,102028.62
2018-03-20T07:43:00.849Z,102021.70
2018-03-20T07:45:29.526Z,102016.69
2018-03-20T07:47:57.626Z,102023.52
2018-03-20T07:50:25.828Z,102026.56
2018-03-20T07:52:54.234Z,102031.92
2018-03-20T07:55:22.326Z,102026.27
2018-03-20T07:57:50.436Z,102047.97
2018-03-20T08:00:18.556Z,102067.27
2018-03-20T08:02:46.641Z,102053.29
2018-03-20T08:05:14.749Z,102057.66
2018-03-20T08:07:42.873Z,102071.17
2018-03-20T08:10:10.983Z,102073.63
2018-03-20T08:12:39.115Z,102057.36
2018-03-20T08:15:07.251Z,102074.42
2018-03-20T08:17:35.350Z,102091.38
2018-03-20T08:20:03.454Z,102075.44
2018-03-20T08:22:31.566Z,102084.36
2018-03-20T08:24:59.675Z,102074.95
2018-03-20T08:27:27.775Z,102097.56
2018-03-20T08:29:55.944Z,102103.56
2018-03-20T08:32:24.404Z,102108.54
2018-03-20T08:34:52.500Z,102132.71
2018-03-20T08:37:20.590Z,102129.23
2018-03-20T08:39:48.834Z,102151.87
2018-03-20T08:42:21.897Z,102135.34
2018-03-20T08:44:50.079Z,102138.02
2018-03-20T08:47:18.181Z,102155.94
2018-03-20T08:49:46.352Z,102145.56
2018-03-20T08:52:14.527Z,102152.56
2018-03-20T08:54:43.144Z,102144.91
2018-03-20T08:57:11.225Z,102156.72
2018-03-20T08:59:39.360Z,102167.47
2018-03-20T09:02:07.444Z,102157.77
2018-03-20T09:04:35.540Z,102165.59
2018-03-20T09:07:03.657Z,102168.80
2018-03-20T09:09:31.773Z,102172.79
2018-03-20T09:11:59.845Z,102176.66
2018-03-20T09:14:28.091Z,102185.08
2018-03-20T09:16:56.247Z,102192.59
2018-03-20T09:19:24.999Z,102197.50
2018-03-20T09:21:53.090Z,102200.18
2018-03-20T09:24:21.186Z,102200.97
2018-03-20T09:26:49.313Z,102208.85
2018-03-20T09:29:17.388Z,102216.09
2018-03-20T09:31:45.484Z,102213.00
2018-03-20T09:34:13.585Z,102234.66
2018-03-20T09:36:41.742Z,102227.97
2018-03-20T09:39:09.835Z,102217.63
2018-03-20T09:41:38.715Z,102219.32
2018-03-20T09:44:06.835Z,102225.47
2018-03-20T09:46:35.521Z,102246.93
2018-03-20T09:51:38.259Z,102238.62
2018-03-20T09:54:06.419Z,102234.25
2018-03-20T09:56:34.581Z,102265.09
2018-03-20T09:59:02.719Z,102263.92
2018-03-20T10:01:30.803Z,102252.33
2018-03-20T10:03:58.902Z,102266.34
2018-03-20T10:06:27.013Z,102274.37
2018-03-20T10:08:55.104Z,102273.98
2018-03-20T10:11:23.193Z,102303.33
2018-03-20T10:13:51.321Z,102273.55
2018-03-20T10:16:20.290Z,102277.50
2018-03-20T10:18:48.373Z,102284.81
2018-03-20T10:21:16.499Z,102293.67
2018-03-20T10:23:44.607Z,102278.98
2018-03-20T10:26:12.838Z,102283.57
2018-03-20T10:28:40.974Z,102305.61
2018-03-20T10:31:09.278Z,102299.28
2018-03-20T10:33:37.373Z,102316.18
2018-03-20T10:36:05.801Z,102297.52
2018-03-20T10:38:33.961Z,102307.74
2018-03-20T10:41:02.048Z,102310.36
2018-03-20T10:43:30.173Z,102318.88
2018-03-20T10:45:58.255Z,102317.11
2018-03-20T10:48:26.352Z,102298.81
2018-03-20T10:50:54.492Z,102319.62
2018-03-20T10:53:23.125Z,102321.56
2018-03-20T10:55:51.219Z,102321.63
2018-03-20T10:58:19.355Z,102340.72
2018-03-20T11:00:48.271Z,102343.26
2018-03-20T11:03:16.355Z,102339.36
2018-03-20T11:05:44.472Z,102329.08
2018-03-20T11:08:12.555Z,102328.56
2018-03-20T11:10:40.667Z,102357.73
2018-03-20T11:13:08.813Z,102345.52
2018-03-20T11:15:36.979Z,102348.00
2018-03-20T11:18:05.067Z,102351.09
2018-03-20T11:20:33.162Z,102349.91
2018-03-20T11:36:01.297Z,102360.86
2018-03-20T11:38:29.414Z,102356.94
2018-03-20T11:40:58.213Z,102376.41
2018-03-20T11:43:26.349Z,102373.26
2018-03-20T11:45:54.435Z,102355.11
2018-03-20T11:48:22.519Z,102395.48
2018-03-20T11:50:50.644Z,102367.61
2018-03-20T11:53:18.748Z,102373.25
2018-03-20T11:55:48.293Z,102388.30
2018-03-20T11:58:16.450Z,102394.66
2018-03-20T12:00:44.860Z,102396.67
2018-03-20T12:03:12.959Z,102401.48
2018-03-20T12:05:41.316Z,102415.53
2018-03-20T12:08:21.205Z,102421.83
2018-03-20T12:10:49.642Z,102427.76
2018-03-20T12:13:17.720Z,102424.45
2018-03-20T12:15:46.612Z,102422.45
2018-03-20T12:18:14.777Z,102459.77
2018-03-20T12:20:42.849Z,102434.65
2018-03-20T12:23:10.950Z,102433.11
2018-03-20T12:25:39.200Z,102448.13
2018-03-20T12:28:07.364Z,102432.63
2018-03-20T12:30:35.433Z,102435.55
2018-03-20T12:33:03.546Z,102435.98
2018-03-20T12:35:31.623Z,102436.23
2018-03-20T12:37:59.843Z,102453.14
2018-03-20T12:40:27.936Z,102445.14
2018-03-20T12:42:56.033Z,102444.55
2018-03-20T12:45:24.117Z,102451.31
2018-03-20T12:47:52.569Z,102475.73
2018-03-20T12:50:20.662Z,102459.95
2018-03-20T12:52:48.817Z,102452.94
2018-03-20T12:55:17.827Z,102452.59
2018-03-20T12:57:46.678Z,102460.69
2018-03-20T13:00:14.793Z,102504.80
2018-03-20T13:02:42.874Z,102459.86
2018-03-20T13:05:12.161Z,102460.19
2018-03-20T13:07:40.271Z,102458.27
2018-03-20T13:10:08.452Z,102462.62
2018-03-20T13:12:36.585Z,102460.44
2018-03-20T13:15:04.689Z,102466.09
2018-03-20T13:17:32.825Z,102466.66
2018-03-20T13:20:00.928Z,102445.81
2018-03-20T13:32:14.014Z,102510.14
2018-03-20T13:34:42.112Z,102506.06
2018-03-20T13:37:10.459Z,102490.98
2018-03-20T13:39:38.539Z,102478.91
2018-03-20T13:42:07.434Z,102508.37
2018-03-20T13:44:35.855Z,102499.70
2018-03-20T13:47:04.018Z,102490.63
2018-03-20T13:49:32.887Z,102512.22
2018-03-20T13:52:00.983Z,102506.84
2018-03-20T13:54:29.095Z,102494.22
2018-03-20T13:56:57.298Z,102505.19
2018-03-20T13:59:25.468Z,102502.64
2018-03-20T14:01:53.554Z,102494.95
2018-03-20T14:04:21.663Z,102508.27
2018-03-20T14:06:49.763Z,102509.16
2018-03-20T14:09:17.851Z,102499.72
2018-03-20T14:11:45.951Z,102510.20
2018-03-20T14:14:14.065Z,102506.67
2018-03-20T14:16:42.160Z,102536.99
2018-03-20T14:19:10.377Z,102516.09
2018-03-20T14:21:38.531Z,102543.22
2018-03-20T14:24:07.069Z,102528.68
2018-03-20T14:26:35.152Z,102533.89
2018-03-20T14:29:03.257Z,102552.77
2018-03-20T14:31:31.354Z,102519.45
2018-03-20T14:33:59.450Z,102527.83
2018-03-20T14:36:29.035Z,102510.02
2018-03-20T14:38:57.064Z,102549.50
2018-03-20T14:41:26.074Z,102527.33
2018-03-20T14:43:54.523Z,102540.08
2018-03-20T14:46:22.584Z,102527.42
2018-03-20T14:48:50.677Z,102542.27
2018-03-20T14:51:18.771Z,102533.06
2018-03-20T14:53:46.857Z,102548.67
2018-03-20T14:56:15.014Z,102553.88
2018-03-20T14:58:43.094Z,102538.53
2018-03-20T15:01:11.170Z,102553.59
2018-03-20T15:03:40.033Z,102534.63
2018-03-20T15:06:08.150Z,102544.75
2018-03-20T15:08:36.360Z,102563.53
2018-03-20T15:11:04.545Z,102552.24
2018-03-20T15:13:32.729Z,102545.05
2018-03-20T15:16:00.830Z,102556.64
2018-03-20T15:18:28.931Z,102556.08
2018-03-20T15:20:58.377Z,102577.88
2018-03-20T15:23:26.461Z,102547.89
2018-03-20T15:25:54.575Z,102582.34
2018-03-20T15:28:22.678Z,102584.33
2018-03-20T15:30:51.263Z,102586.13
2018-03-20T15:33:19.385Z,102570.98
2018-03-20T15:35:48.042Z,102599.09
2018-03-20T15:38:16.127Z,102591.45
2018-03-20T15:40:44.301Z,102604.89
2018-03-20T15:43:12.368Z,102606.64
2018-03-20T15:45:40.473Z,102599.61
2018-03-20T15:48:08.575Z,102596.48
2018-03-20T15:50:36.662Z,102580.43
2018-03-20T15:53:04.805Z,102615.58
2018-03-20T15:55:32.921Z,102593.26
2018-03-20T15:58:01.008Z,102608.90
2018-03-20T16:00:29.105Z,102610.38
2018-03-20T16:02:57.213Z,102591.66
2018-03-20T16:05:25.348Z,102617.82
2018-03-20T16:07:53.442Z,102597.88
2018-03-20T16:10:21.571Z,102609.45
2018-03-20T16:12:50.445Z,102617.90
2018-03-20T16:15:18.537Z,102625.05
2018-03-20T16:17:46.729Z,102626.80
2018-03-20T16:20:14.907Z,102626.34
2018-03-20T16:22:42.996Z,102623.25
2018-03-20T16:25:11.082Z,102624.16
2018-03-20T16:27:39.184Z,102634.78
2018-03-20T16:30:07.317Z,102652.95
2018-03-20T16:32:35.410Z,102651.65
2018-03-20T16:35:03.518Z,102648.95
2018-03-20T16:50:31.887Z,102673.65
2018-03-20T16:53:00.704Z,102659.42
2018-03-20T16:55:28.879Z,102671.41
2018-03-20T16:57:57.010Z,102681.64
2018-03-20T17:00:25.440Z,102688.75
2018-03-20T17:02:53.556Z,102681.64
2018-03-20T17:05:21.926Z,102694.55
2018-03-20T17:07:50.015Z,102701.64
2018-03-20T17:10:18.190Z,102697.21
2018-03-20T17:12:46.268Z,102704.71
2018-03-20T17:15:14.458Z,102709.16
2018-03-20T17:17:42.630Z,102716.25
2018-03-20T17:20:10.710Z,102704.28
2018-03-20T17:22:38.954Z,102703.83
2018-03-20T17:25:07.059Z,102712.25
2018-03-20T17:27:35.142Z,102727.31
2018-03-20T17:30:03.276Z,102722.89
2018-03-20T17:32:32.028Z,102723.33
2018-03-20T17:35:01.039Z,102731.73
2018-03-20T17:37:29.388Z,102739.69
2018-03-20T17:39:57.684Z,102725.50
2018-03-20T17:42:25.766Z,102725.50
2018-03-20T17:44:53.911Z,102736.14
2018-03-20T17:47:22.006Z,102743.19
2018-03-20T17:49:50.126Z,102747.59
2018-03-20T17:52:18.222Z,102733.88
2018-03-20T17:54:46.402Z,102750.69
2018-03-20T17:57:14.502Z,102729.87
2018-03-20T17:59:42.666Z,102748.03
2018-03-20T18:02:10.854Z,102751.98
2018-03-20T18:04:39.092Z,102756.83
2018-03-20T18:07:07.156Z,102770.53
2018-03-20T18:09:35.631Z,102759.45
2018-03-20T18:12:03.826Z,102755.94
2018-03-20T18:14:31.900Z,102758.14
2018-03-20T18:17:00.010Z,102762.58
2018-03-20T18:19:28.210Z,102753.70
2018-03-20T18:21:56.370Z,102771.81
2018-03-20T18:24:25.151Z,102771.34
2018-03-20T18:26:53.294Z,102776.66
2018-03-20T18:29:21.380Z,102777.52
2018-03-20T18:31:49.598Z,102789.44
2018-03-20T18:34:17.686Z,102786.33
2018-03-20T18:36:45.767Z,102800.89
2018-03-20T18:39:13.882Z,102801.23
2018-03-20T18:41:41.976Z,102800.00
2018-03-20T18:44:10.067Z,102809.26
2018-03-20T18:46:38.184Z,102810.07
2018-03-20T18:49:06.274Z,102810.55
2018-03-20T18:51:34.394Z,102814.48
2018-03-20T18:54:02.495Z,102817.17
2018-03-20T18:56:30.578Z,102827.32
2018-03-20T18:58:58.783Z,102823.27
2018-03-20T19:01:26.870Z,102825.91
2018-03-20T19:03:55.002Z,102834.21
2018-03-20T19:06:23.202Z,102833.83
2018-03-20T19:08:51.313Z,102834.67
2018-03-20T19:11:19.414Z,102830.30
2018-03-20T19:13:47.820Z,102841.76
2018-03-20T19:16:16.020Z,102836.36
2018-03-20T19:18:44.703Z,102837.71
2018-03-20T19:21:12.850Z,102839.84
2018-03-20T19:23:40.979Z,102846.89
2018-03-20T19:26:09.075Z,102845.09
2018-03-20T19:28:37.167Z,102854.38
2018-03-20T19:31:05.644Z,102847.24
2018-03-20T19:33:33.825Z,102850.39
2018-03-20T19:36:01.951Z,102848.23
2018-03-20T19:38:30.111Z,102865.02
2018-03-20T19:40:58.254Z,102862.34
2018-03-20T19:43:26.374Z,102865.42
2018-03-20T19:45:54.584Z,102875.08
2018-03-20T19:48:23.685Z,102873.80
2018-03-20T19:50:51.944Z,102880.03
2018-03-20T19:53:20.117Z,102879.95
2018-03-20T19:55:49.152Z,102883.97
2018-03-20T19:58:17.271Z,102879.98
2018-03-20T20:00:45.375Z,102878.23
2018-03-20T20:03:13.476Z,102879.06
2018-03-20T20:05:41.654Z,102884.23
2018-03-20T20:08:09.786Z,102887.78
2018-03-20T20:10:38.920Z,102888.80
2018-03-20T20:13:07.139Z,102893.13
2018-03-20T20:15:35.409Z,102897.55
2018-03-20T20:18:03.487Z,102893.64
2018-03-20T20:20:31.600Z,102904.25
2018-03-20T20:22:59.928Z,102901.13
2018-03-20T20:25:28.254Z,102903.38
2018-03-20T20:28:01.500Z,102910.48
2018-03-20T20:30:29.616Z,102906.46
2018-03-20T20:32:57.799Z,102908.23
2018-03-20T20:35:25.918Z,102917.93
2018-03-20T20:37:54.021Z,102924.70
2018-03-20T20:40:23.078Z,102926.90
2018-03-20T20:42:51.182Z,102931.81
2018-03-20T20:45:20.964Z,102937.55
2018-03-20T20:47:51.050Z,102939.80
2018-03-20T20:50:20.279Z,102931.39
2018-03-20T20:52:48.378Z,102934.06
2018-03-20T21:08:16.599Z,102942.94
2018-03-20T21:10:44.716Z,102940.72
2018-03-20T21:13:12.843Z,102941.61
2018-03-20T21:15:40.975Z,102938.48
2018-03-20T21:18:09.797Z,102941.06
2018-03-20T21:20:37.964Z,102934.80
2018-03-20T21:23:06.043Z,102937.86
2018-03-20T21:25:34.149Z,102937.46
2018-03-20T21:28:02.297Z,102946.78
2018-03-20T21:30:30.854Z,102941.78
2018-03-20T21:32:59.436Z,102942.72
2018-03-20T21:35:27.630Z,102945.94
2018-03-20T21:37:55.796Z,102941.96
2018-03-20T21:40:23.889Z,102937.94
2018-03-20T21:42:52.224Z,102940.56
2018-03-20T21:45:20.623Z,102940.52
2018-03-20T21:47:48.741Z,102940.53
2018-03-20T21:50:16.915Z,102945.75
2018-03-20T21:52:44.986Z,102945.65
2018-03-20T21:55:13.159Z,102940.34
2018-03-20T21:57:41.330Z,102946.97
2018-03-20T22:00:09.421Z,102941.21
2018-03-20T22:02:37.652Z,102945.15
2018-03-20T22:05:05.809Z,102945.49
2018-03-20T22:07:33.971Z,102951.28
2018-03-20T22:10:02.078Z,102946.80
2018-03-20T22:12:30.155Z,102952.05
2018-03-20T22:14:58.238Z,102948.98
2018-03-20T22:17:26.335Z,102946.75
2018-03-20T22:19:54.424Z,102949.42
2018-03-20T22:22:22.598Z,102951.19
2018-03-20T22:24:50.689Z,102950.33
2018-03-20T22:27:18.790Z,102952.50
2018-03-20T22:29:47.207Z,102957.74
2018-03-20T22:32:15.295Z,102961.72
2018-03-20T22:34:43.398Z,102968.81
2018-03-20T22:37:11.875Z,102967.47
2018-03-20T22:39:40.986Z,102974.61
2018-03-20T22:42:09.118Z,102975.78
2018-03-20T22:44:37.221Z,102977.11
2018-03-20T22:47:05.323Z,102980.04
2018-03-20T22:49:33.521Z,102986.02
2018-03-20T22:52:01.625Z,102983.27
2018-03-20T22:54:29.865Z,102975.17
2018-03-20T22:56:58.004Z,102979.61
2018-03-20T22:59:26.145Z,102978.16
2018-03-20T23:01:54.256Z,102988.41
2018-03-20T23:04:22.356Z,102975.06
2018-03-20T23:06:50.731Z,102981.69
2018-03-20T23:09:19.628Z,102984.36
2018-03-20T23:11:47.725Z,102981.61
2018-03-20T23:14:16.379Z,102984.28
2018-03-20T23:16:44.494Z,102981.61
2018-03-20T23:19:12.602Z,102979.78
2018-03-20T23:21:40.696Z,102983.78
2018-03-20T23:24:08.859Z,102984.25
2018-03-20T23:26:36.925Z,102985.50
2018-03-20T23:29:05.018Z,102986.41
2018-03-20T23:31:33.129Z,102984.67
2018-03-20T23:34:01.248Z,102978.35
2018-03-20T23:36:29.363Z,102984.18
2018-03-20T23:38:58.343Z,102977.94
2018-03-20T23:41:26.452Z,102986.27
2018-03-20T23:43:54.573Z,102982.35
2018-03-20T23:46:22.719Z,102980.59
2018-03-20T23:48:50.909Z,102987.62
2018-03-20T23:51:18.996Z,102987.20
2018-03-20T23:53:47.100Z,102991.66
2018-03-20T23:56:15.242Z,102990.73
2018-03-20T23:58:43.368Z,102997.80
